sensor_id;sensor_type;location;lat;lon;timestamp;P1;durP1;ratioP1;P2;durP2;ratioP2
59273;SDS011;45044;41.572;24.730;2023-02-22T00:01:41;54.00;;;24.13;;
59273;SDS011;45044;41.572;24.730;2023-02-22T00:04:36;89.03;;;42.27;;
59273;SDS011;45044;41.572;24.730;2023-02-22T00:07:05;121.53;;;59.83;;
59273;SDS011;45044;41.572;24.730;2023-02-22T00:09:33;127.50;;;58.60;;
59273;SDS011;45044;41.572;24.730;2023-02-22T00:11:59;76.53;;;36.20;;
59273;SDS011;45044;41.572;24.730;2023-02-22T00:14:26;65.30;;;34.73;;
59273;SDS011;45044;41.572;24.730;2023-02-22T00:16:53;64.35;;;31.83;;
59273;SDS011;45044;41.572;24.730;2023-02-22T00:19:25;59.07;;;29.23;;
59273;SDS011;45044;41.572;24.730;2023-02-22T00:21:53;33.50;;;18.03;;
59273;SDS011;45044;41.572;24.730;2023-02-22T00:24:20;22.33;;;13.40;;
59273;SDS011;45044;41.572;24.730;2023-02-22T00:26:53;21.40;;;11.17;;
59273;SDS011;45044;41.572;24.730;2023-02-22T00:29:21;18.63;;;10.20;;
59273;SDS011;45044;41.572;24.730;2023-02-22T00:31:51;20.90;;;10.87;;
59273;SDS011;45044;41.572;24.730;2023-02-22T00:34:18;26.77;;;13.17;;
59273;SDS011;45044;41.572;24.730;2023-02-22T00:36:46;29.03;;;14.43;;
59273;SDS011;45044;41.572;24.730;2023-02-22T00:39:14;31.93;;;16.83;;
59273;SDS011;45044;41.572;24.730;2023-02-22T00:41:41;31.33;;;17.90;;
59273;SDS011;45044;41.572;24.730;2023-02-22T00:44:08;68.20;;;29.13;;
59273;SDS011;45044;41.572;24.730;2023-02-22T00:46:34;73.60;;;34.83;;
59273;SDS011;45044;41.572;24.730;2023-02-22T00:49:01;67.73;;;31.73;;
59273;SDS011;45044;41.572;24.730;2023-02-22T00:51:28;86.83;;;42.90;;
59273;SDS011;45044;41.572;24.730;2023-02-22T00:53:55;80.00;;;38.90;;
59273;SDS011;45044;41.572;24.730;2023-02-22T00:56:22;66.40;;;32.20;;
59273;SDS011;45044;41.572;24.730;2023-02-22T00:58:49;69.33;;;32.67;;
59273;SDS011;45044;41.572;24.730;2023-02-22T01:01:15;61.37;;;31.40;;
59273;SDS011;45044;41.572;24.730;2023-02-22T01:03:43;41.37;;;19.43;;
59273;SDS011;45044;41.572;24.730;2023-02-22T01:06:10;23.43;;;14.03;;
59273;SDS011;45044;41.572;24.730;2023-02-22T01:08:37;29.53;;;15.80;;
59273;SDS011;45044;41.572;24.730;2023-02-22T01:11:03;41.77;;;19.03;;
59273;SDS011;45044;41.572;24.730;2023-02-22T01:13:30;40.13;;;19.43;;
59273;SDS011;45044;41.572;24.730;2023-02-22T01:15:58;36.60;;;15.77;;
59273;SDS011;45044;41.572;24.730;2023-02-22T01:18:25;59.90;;;24.13;;
59273;SDS011;45044;41.572;24.730;2023-02-22T01:20:52;47.27;;;18.53;;
59273;SDS011;45044;41.572;24.730;2023-02-22T01:23:19;47.37;;;20.83;;
59273;SDS011;45044;41.572;24.730;2023-02-22T01:25:46;31.90;;;13.93;;
59273;SDS011;45044;41.572;24.730;2023-02-22T01:28:13;32.00;;;15.63;;
59273;SDS011;45044;41.572;24.730;2023-02-22T01:30:40;36.07;;;17.10;;
59273;SDS011;45044;41.572;24.730;2023-02-22T01:33:07;16.43;;;8.07;;
59273;SDS011;45044;41.572;24.730;2023-02-22T01:35:35;13.67;;;6.93;;
59273;SDS011;45044;41.572;24.730;2023-02-22T01:38:06;14.33;;;7.07;;
59273;SDS011;45044;41.572;24.730;2023-02-22T01:40:35;13.53;;;6.37;;
59273;SDS011;45044;41.572;24.730;2023-02-22T01:43:05;23.63;;;11.50;;
59273;SDS011;45044;41.572;24.730;2023-02-22T01:45:43;24.20;;;12.93;;
59273;SDS011;45044;41.572;24.730;2023-02-22T01:53:47;33.63;;;15.93;;
59273;SDS011;45044;41.572;24.730;2023-02-22T01:56:18;33.30;;;16.07;;
59273;SDS011;45044;41.572;24.730;2023-02-22T01:58:51;32.47;;;18.07;;
59273;SDS011;45044;41.572;24.730;2023-02-22T02:01:22;50.75;;;22.90;;
59273;SDS011;45044;41.572;24.730;2023-02-22T02:03:51;35.63;;;18.70;;
59273;SDS011;45044;41.572;24.730;2023-02-22T02:06:23;38.30;;;18.93;;
59273;SDS011;45044;41.572;24.730;2023-02-22T02:11:59;30.63;;;15.60;;
59273;SDS011;45044;41.572;24.730;2023-02-22T02:14:28;29.00;;;15.17;;
59273;SDS011;45044;41.572;24.730;2023-02-22T02:16:57;61.73;;;23.13;;
59273;SDS011;45044;41.572;24.730;2023-02-22T02:34:03;49.42;;;21.77;;
59273;SDS011;45044;41.572;24.730;2023-02-22T02:36:46;45.20;;;19.67;;
59273;SDS011;45044;41.572;24.730;2023-02-22T02:39:26;39.93;;;20.10;;
59273;SDS011;45044;41.572;24.730;2023-02-22T02:41:56;51.90;;;24.50;;
59273;SDS011;45044;41.572;24.730;2023-02-22T02:44:30;47.77;;;22.60;;
59273;SDS011;45044;41.572;24.730;2023-02-22T02:49:35;64.80;;;30.37;;
59273;SDS011;45044;41.572;24.730;2023-02-22T02:52:03;72.30;;;31.90;;
59273;SDS011;45044;41.572;24.730;2023-02-22T02:54:32;85.97;;;34.27;;
59273;SDS011;45044;41.572;24.730;2023-02-22T02:57:02;80.53;;;34.70;;
59273;SDS011;45044;41.572;24.730;2023-02-22T02:59:34;79.70;;;35.57;;
59273;SDS011;45044;41.572;24.730;2023-02-22T03:05:10;83.53;;;39.77;;
59273;SDS011;45044;41.572;24.730;2023-02-22T03:16:18;64.43;;;30.10;;
59273;SDS011;45044;41.572;24.730;2023-02-22T03:18:53;75.10;;;32.53;;
59273;SDS011;45044;41.572;24.730;2023-02-22T03:24:32;65.00;;;31.33;;
59273;SDS011;45044;41.572;24.730;2023-02-22T03:27:13;53.47;;;27.73;;
59273;SDS011;45044;41.572;24.730;2023-02-22T03:29:47;46.40;;;25.57;;
59273;SDS011;45044;41.572;24.730;2023-02-22T03:32:22;37.27;;;21.67;;
59273;SDS011;45044;41.572;24.730;2023-02-22T03:35:13;28.30;;;16.23;;
59273;SDS011;45044;41.572;24.730;2023-02-22T03:37:47;40.10;;;24.27;;
59273;SDS011;45044;41.572;24.730;2023-02-22T03:40:18;53.07;;;27.67;;
59273;SDS011;45044;41.572;24.730;2023-02-22T03:42:53;59.38;;;33.95;;
59273;SDS011;45044;41.572;24.730;2023-02-22T03:45:32;46.90;;;28.60;;
59273;SDS011;45044;41.572;24.730;2023-02-22T03:48:03;46.60;;;26.70;;
59273;SDS011;45044;41.572;24.730;2023-02-22T03:50:36;40.58;;;24.42;;
59273;SDS011;45044;41.572;24.730;2023-02-22T03:53:03;43.20;;;25.03;;
59273;SDS011;45044;41.572;24.730;2023-02-22T03:55:31;46.43;;;27.77;;
59273;SDS011;45044;41.572;24.730;2023-02-22T03:57:58;41.97;;;26.13;;
59273;SDS011;45044;41.572;24.730;2023-02-22T04:00:31;32.73;;;20.97;;
59273;SDS011;45044;41.572;24.730;2023-02-22T04:02:59;32.87;;;19.97;;
59273;SDS011;45044;41.572;24.730;2023-02-22T04:05:26;31.37;;;19.80;;
59273;SDS011;45044;41.572;24.730;2023-02-22T04:07:54;32.23;;;21.33;;
59273;SDS011;45044;41.572;24.730;2023-02-22T04:10:22;36.33;;;23.00;;
59273;SDS011;45044;41.572;24.730;2023-02-22T04:12:50;38.90;;;23.20;;
59273;SDS011;45044;41.572;24.730;2023-02-22T04:15:19;35.37;;;20.10;;
59273;SDS011;45044;41.572;24.730;2023-02-22T04:17:47;34.77;;;22.03;;
59273;SDS011;45044;41.572;24.730;2023-02-22T04:20:14;36.17;;;22.10;;
59273;SDS011;45044;41.572;24.730;2023-02-22T04:22:45;34.13;;;22.57;;
59273;SDS011;45044;41.572;24.730;2023-02-22T04:25:13;41.23;;;26.63;;
59273;SDS011;45044;41.572;24.730;2023-02-22T04:27:40;41.40;;;24.90;;
59273;SDS011;45044;41.572;24.730;2023-02-22T04:30:07;36.60;;;23.53;;
59273;SDS011;45044;41.572;24.730;2023-02-22T04:32:34;41.50;;;24.20;;
59273;SDS011;45044;41.572;24.730;2023-02-22T04:35:01;34.97;;;24.23;;
59273;SDS011;45044;41.572;24.730;2023-02-22T04:37:29;40.23;;;24.47;;
59273;SDS011;45044;41.572;24.730;2023-02-22T04:39:55;40.77;;;26.57;;
59273;SDS011;45044;41.572;24.730;2023-02-22T04:42:22;46.00;;;24.73;;
59273;SDS011;45044;41.572;24.730;2023-02-22T04:44:49;42.03;;;24.80;;
59273;SDS011;45044;41.572;24.730;2023-02-22T04:47:15;40.80;;;24.30;;
59273;SDS011;45044;41.572;24.730;2023-02-22T04:49:42;41.43;;;26.03;;
59273;SDS011;45044;41.572;24.730;2023-02-22T04:52:09;41.97;;;26.17;;
59273;SDS011;45044;41.572;24.730;2023-02-22T04:54:36;69.50;;;35.53;;
59273;SDS011;45044;41.572;24.730;2023-02-22T04:57:02;123.77;;;54.93;;
59273;SDS011;45044;41.572;24.730;2023-02-22T04:59:29;77.47;;;40.73;;
59273;SDS011;45044;41.572;24.730;2023-02-22T05:01:58;54.03;;;33.40;;
59273;SDS011;45044;41.572;24.730;2023-02-22T05:04:27;57.40;;;34.17;;
59273;SDS011;45044;41.572;24.730;2023-02-22T05:06:54;52.00;;;30.20;;
59273;SDS011;45044;41.572;24.730;2023-02-22T05:09:20;45.40;;;28.73;;
59273;SDS011;45044;41.572;24.730;2023-02-22T05:11:47;60.93;;;41.07;;
59273;SDS011;45044;41.572;24.730;2023-02-22T05:14:14;62.87;;;43.03;;
59273;SDS011;45044;41.572;24.730;2023-02-22T05:16:41;71.13;;;47.47;;
59273;SDS011;45044;41.572;24.730;2023-02-22T05:19:09;79.13;;;49.03;;
59273;SDS011;45044;41.572;24.730;2023-02-22T05:21:35;137.13;;;72.90;;
59273;SDS011;45044;41.572;24.730;2023-02-22T05:24:02;129.80;;;67.93;;
59273;SDS011;45044;41.572;24.730;2023-02-22T05:26:29;114.00;;;61.93;;
59273;SDS011;45044;41.572;24.730;2023-02-22T05:28:56;102.97;;;59.93;;
59273;SDS011;45044;41.572;24.730;2023-02-22T05:31:23;97.03;;;58.47;;
59273;SDS011;45044;41.572;24.730;2023-02-22T05:33:49;99.63;;;59.63;;
59273;SDS011;45044;41.572;24.730;2023-02-22T05:36:18;98.20;;;59.67;;
59273;SDS011;45044;41.572;24.730;2023-02-22T05:38:44;87.43;;;56.60;;
59273;SDS011;45044;41.572;24.730;2023-02-22T05:41:11;97.10;;;56.20;;
59273;SDS011;45044;41.572;24.730;2023-02-22T05:43:39;112.17;;;66.63;;
59273;SDS011;45044;41.572;24.730;2023-02-22T05:46:06;120.13;;;70.53;;
59273;SDS011;45044;41.572;24.730;2023-02-22T05:48:33;125.50;;;75.87;;
59273;SDS011;45044;41.572;24.730;2023-02-22T05:51:00;131.13;;;79.73;;
59273;SDS011;45044;41.572;24.730;2023-02-22T05:53:27;129.47;;;75.60;;
59273;SDS011;45044;41.572;24.730;2023-02-22T05:55:54;101.27;;;63.00;;
59273;SDS011;45044;41.572;24.730;2023-02-22T05:58:20;107.93;;;63.67;;
59273;SDS011;45044;41.572;24.730;2023-02-22T06:00:47;108.97;;;64.37;;
59273;SDS011;45044;41.572;24.730;2023-02-22T06:03:14;71.70;;;44.50;;
59273;SDS011;45044;41.572;24.730;2023-02-22T06:05:41;101.17;;;58.60;;
59273;SDS011;45044;41.572;24.730;2023-02-22T06:08:08;64.30;;;44.40;;
59273;SDS011;45044;41.572;24.730;2023-02-22T06:10:35;70.27;;;46.93;;
59273;SDS011;45044;41.572;24.730;2023-02-22T06:13:03;78.07;;;52.43;;
59273;SDS011;45044;41.572;24.730;2023-02-22T06:15:30;83.03;;;52.90;;
59273;SDS011;45044;41.572;24.730;2023-02-22T06:17:57;93.67;;;59.60;;
59273;SDS011;45044;41.572;24.730;2023-02-22T06:20:25;88.53;;;58.17;;
59273;SDS011;45044;41.572;24.730;2023-02-22T06:22:54;76.83;;;46.90;;
59273;SDS011;45044;41.572;24.730;2023-02-22T06:25:24;65.67;;;43.20;;
59273;SDS011;45044;41.572;24.730;2023-02-22T06:27:52;84.90;;;55.23;;
59273;SDS011;45044;41.572;24.730;2023-02-22T06:30:20;79.35;;;52.60;;
59273;SDS011;45044;41.572;24.730;2023-02-22T06:32:49;93.75;;;57.97;;
59273;SDS011;45044;41.572;24.730;2023-02-22T06:35:16;83.05;;;55.22;;
59273;SDS011;45044;41.572;24.730;2023-02-22T06:37:43;82.90;;;53.80;;
59273;SDS011;45044;41.572;24.730;2023-02-22T06:40:10;86.60;;;57.42;;
59273;SDS011;45044;41.572;24.730;2023-02-22T06:42:38;100.43;;;65.93;;
59273;SDS011;45044;41.572;24.730;2023-02-22T06:45:05;111.45;;;72.18;;
59273;SDS011;45044;41.572;24.730;2023-02-22T06:47:36;101.63;;;67.70;;
59273;SDS011;45044;41.572;24.730;2023-02-22T06:50:03;94.32;;;61.83;;
59273;SDS011;45044;41.572;24.730;2023-02-22T06:52:30;81.00;;;60.13;;
59273;SDS011;45044;41.572;24.730;2023-02-22T06:54:57;85.30;;;62.00;;
59273;SDS011;45044;41.572;24.730;2023-02-22T06:57:24;84.70;;;63.00;;
59273;SDS011;45044;41.572;24.730;2023-02-22T06:59:57;74.78;;;55.70;;
59273;SDS011;45044;41.572;24.730;2023-02-22T07:02:23;76.25;;;56.70;;
59273;SDS011;45044;41.572;24.730;2023-02-22T07:04:50;77.15;;;53.97;;
59273;SDS011;45044;41.572;24.730;2023-02-22T07:07:17;88.40;;;57.92;;
59273;SDS011;45044;41.572;24.730;2023-02-22T07:09:44;93.13;;;62.55;;
59273;SDS011;45044;41.572;24.730;2023-02-22T07:12:12;87.22;;;59.13;;
59273;SDS011;45044;41.572;24.730;2023-02-22T07:14:39;79.93;;;53.67;;
59273;SDS011;45044;41.572;24.730;2023-02-22T07:17:05;77.63;;;55.75;;
59273;SDS011;45044;41.572;24.730;2023-02-22T07:19:32;69.20;;;51.30;;
59273;SDS011;45044;41.572;24.730;2023-02-22T07:21:59;65.35;;;50.40;;
59273;SDS011;45044;41.572;24.730;2023-02-22T07:24:26;59.00;;;48.15;;
59273;SDS011;45044;41.572;24.730;2023-02-22T07:26:55;58.58;;;45.05;;
59273;SDS011;45044;41.572;24.730;2023-02-22T07:29:22;67.00;;;50.42;;
59273;SDS011;45044;41.572;24.730;2023-02-22T07:31:49;71.20;;;56.38;;
59273;SDS011;45044;41.572;24.730;2023-02-22T07:34:15;70.28;;;62.58;;
59273;SDS011;45044;41.572;24.730;2023-02-22T07:36:42;75.97;;;64.13;;
59273;SDS011;45044;41.572;24.730;2023-02-22T07:39:09;75.07;;;66.30;;
59273;SDS011;45044;41.572;24.730;2023-02-22T07:41:36;83.22;;;74.47;;
59273;SDS011;45044;41.572;24.730;2023-02-22T07:44:03;89.22;;;79.70;;
59273;SDS011;45044;41.572;24.730;2023-02-22T07:46:30;116.57;;;104.65;;
59273;SDS011;45044;41.572;24.730;2023-02-22T07:48:56;103.07;;;92.22;;
59273;SDS011;45044;41.572;24.730;2023-02-22T07:51:30;98.50;;;87.97;;
59273;SDS011;45044;41.572;24.730;2023-02-22T07:53:57;100.75;;;89.50;;
59273;SDS011;45044;41.572;24.730;2023-02-22T07:56:23;101.07;;;87.85;;
59273;SDS011;45044;41.572;24.730;2023-02-22T07:58:50;107.85;;;89.28;;
59273;SDS011;45044;41.572;24.730;2023-02-22T08:01:17;92.50;;;82.57;;
59273;SDS011;45044;41.572;24.730;2023-02-22T08:03:44;95.10;;;81.25;;
59273;SDS011;45044;41.572;24.730;2023-02-22T08:06:12;81.72;;;72.68;;
59273;SDS011;45044;41.572;24.730;2023-02-22T08:08:39;72.80;;;62.00;;
59273;SDS011;45044;41.572;24.730;2023-02-22T08:11:06;64.80;;;54.95;;
59273;SDS011;45044;41.572;24.730;2023-02-22T08:13:33;43.45;;;37.13;;
59273;SDS011;45044;41.572;24.730;2023-02-22T08:16:00;31.13;;;24.45;;
59273;SDS011;45044;41.572;24.730;2023-02-22T08:18:26;25.15;;;19.85;;
59273;SDS011;45044;41.572;24.730;2023-02-22T08:20:53;8.18;;;5.25;;
59273;SDS011;45044;41.572;24.730;2023-02-22T08:23:21;10.90;;;8.40;;
59273;SDS011;45044;41.572;24.730;2023-02-22T08:25:50;21.48;;;16.50;;
59273;SDS011;45044;41.572;24.730;2023-02-22T08:28:18;11.82;;;8.75;;
59273;SDS011;45044;41.572;24.730;2023-02-22T08:30:47;6.03;;;3.25;;
59273;SDS011;45044;41.572;24.730;2023-02-22T08:33:15;6.97;;;3.90;;
59273;SDS011;45044;41.572;24.730;2023-02-22T08:35:45;5.32;;;2.60;;
59273;SDS011;45044;41.572;24.730;2023-02-22T08:38:16;10.63;;;5.90;;
59273;SDS011;45044;41.572;24.730;2023-02-22T08:40:46;5.18;;;2.80;;
59273;SDS011;45044;41.572;24.730;2023-02-22T08:43:13;5.13;;;2.50;;
59273;SDS011;45044;41.572;24.730;2023-02-22T08:45:40;3.97;;;2.17;;
59273;SDS011;45044;41.572;24.730;2023-02-22T08:48:08;6.97;;;3.13;;
59273;SDS011;45044;41.572;24.730;2023-02-22T08:50:34;5.55;;;3.08;;
59273;SDS011;45044;41.572;24.730;2023-02-22T08:53:02;6.50;;;2.25;;
59273;SDS011;45044;41.572;24.730;2023-02-22T08:55:32;3.10;;;1.65;;
59273;SDS011;45044;41.572;24.730;2023-02-22T08:58:02;4.63;;;2.25;;
59273;SDS011;45044;41.572;24.730;2023-02-22T09:00:31;4.90;;;2.05;;
59273;SDS011;45044;41.572;24.730;2023-02-22T09:02:59;3.28;;;1.33;;
59273;SDS011;45044;41.572;24.730;2023-02-22T09:05:28;2.83;;;1.52;;
59273;SDS011;45044;41.572;24.730;2023-02-22T09:07:56;7.32;;;2.92;;
59273;SDS011;45044;41.572;24.730;2023-02-22T09:10:25;5.18;;;1.40;;
59273;SDS011;45044;41.572;24.730;2023-02-22T09:12:54;6.20;;;2.85;;
59273;SDS011;45044;41.572;24.730;2023-02-22T09:15:23;6.78;;;2.72;;
59273;SDS011;45044;41.572;24.730;2023-02-22T09:17:51;10.25;;;4.70;;
59273;SDS011;45044;41.572;24.730;2023-02-22T09:20:19;1.55;;;0.80;;
59273;SDS011;45044;41.572;24.730;2023-02-22T09:22:47;1.50;;;0.60;;
59273;SDS011;45044;41.572;24.730;2023-02-22T09:25:15;1.30;;;0.80;;
59273;SDS011;45044;41.572;24.730;2023-02-22T09:27:45;0.95;;;0.60;;
59273;SDS011;45044;41.572;24.730;2023-02-22T09:30:18;2.05;;;0.70;;
59273;SDS011;45044;41.572;24.730;2023-02-22T09:32:54;1.75;;;0.73;;
59273;SDS011;45044;41.572;24.730;2023-02-22T09:35:23;3.58;;;1.23;;
59273;SDS011;45044;41.572;24.730;2023-02-22T09:37:58;2.05;;;1.20;;
59273;SDS011;45044;41.572;24.730;2023-02-22T09:40:27;9.88;;;3.08;;
59273;SDS011;45044;41.572;24.730;2023-02-22T09:43:08;4.93;;;2.13;;
59273;SDS011;45044;41.572;24.730;2023-02-22T09:48:21;2.17;;;1.00;;
59273;SDS011;45044;41.572;24.730;2023-02-22T09:50:48;1.65;;;0.88;;
59273;SDS011;45044;41.572;24.730;2023-02-22T09:55:58;7.57;;;2.83;;
59273;SDS011;45044;41.572;24.730;2023-02-22T10:04:05;3.22;;;1.23;;
59273;SDS011;45044;41.572;24.730;2023-02-22T10:09:19;1.92;;;0.88;;
59273;SDS011;45044;41.572;24.730;2023-02-22T10:12:01;2.60;;;0.88;;
59273;SDS011;45044;41.572;24.730;2023-02-22T10:22:43;2.70;;;1.13;;
59273;SDS011;45044;41.572;24.730;2023-02-22T10:25:09;1.38;;;0.90;;
59273;SDS011;45044;41.572;24.730;2023-02-22T10:27:54;2.63;;;1.15;;
59273;SDS011;45044;41.572;24.730;2023-02-22T10:30:32;2.03;;;0.80;;
59273;SDS011;45044;41.572;24.730;2023-02-22T10:35:46;9.10;;;1.98;;
59273;SDS011;45044;41.572;24.730;2023-02-22T10:38:16;2.75;;;0.80;;
59273;SDS011;45044;41.572;24.730;2023-02-22T10:40:48;3.35;;;1.00;;
59273;SDS011;45044;41.572;24.730;2023-02-22T10:43:36;3.17;;;0.75;;
59273;SDS011;45044;41.572;24.730;2023-02-22T10:46:04;5.07;;;1.00;;
59273;SDS011;45044;41.572;24.730;2023-02-22T10:48:34;2.28;;;0.93;;
59273;SDS011;45044;41.572;24.730;2023-02-22T10:51:04;5.75;;;1.80;;
59273;SDS011;45044;41.572;24.730;2023-02-22T10:53:34;4.72;;;2.30;;
59273;SDS011;45044;41.572;24.730;2023-02-22T10:56:14;2.47;;;0.90;;
59273;SDS011;45044;41.572;24.730;2023-02-22T10:58:52;3.08;;;0.88;;
59273;SDS011;45044;41.572;24.730;2023-02-22T11:06:28;3.35;;;1.30;;
59273;SDS011;45044;41.572;24.730;2023-02-22T11:09:04;1.55;;;0.85;;
59273;SDS011;45044;41.572;24.730;2023-02-22T11:11:35;3.13;;;1.50;;
59273;SDS011;45044;41.572;24.730;2023-02-22T11:14:04;2.85;;;1.10;;
59273;SDS011;45044;41.572;24.730;2023-02-22T11:16:33;2.65;;;1.00;;
59273;SDS011;45044;41.572;24.730;2023-02-22T11:21:36;5.55;;;2.67;;
59273;SDS011;45044;41.572;24.730;2023-02-22T11:24:05;2.92;;;1.63;;
59273;SDS011;45044;41.572;24.730;2023-02-22T11:26:39;3.83;;;1.17;;
59273;SDS011;45044;41.572;24.730;2023-02-22T11:29:12;4.95;;;1.85;;
59273;SDS011;45044;41.572;24.730;2023-02-22T11:31:45;2.72;;;1.00;;
59273;SDS011;45044;41.572;24.730;2023-02-22T11:34:25;2.78;;;1.42;;
59273;SDS011;45044;41.572;24.730;2023-02-22T11:36:53;3.85;;;1.45;;
59273;SDS011;45044;41.572;24.730;2023-02-22T11:39:27;2.15;;;1.00;;
59273;SDS011;45044;41.572;24.730;2023-02-22T11:44:26;2.00;;;0.88;;
59273;SDS011;45044;41.572;24.730;2023-02-22T11:46:55;1.92;;;1.17;;
59273;SDS011;45044;41.572;24.730;2023-02-22T11:49:31;3.75;;;1.80;;
59273;SDS011;45044;41.572;24.730;2023-02-22T11:54:42;2.92;;;1.40;;
59273;SDS011;45044;41.572;24.730;2023-02-22T12:00:02;2.95;;;1.15;;
59273;SDS011;45044;41.572;24.730;2023-02-22T12:05:26;2.40;;;1.50;;
59273;SDS011;45044;41.572;24.730;2023-02-22T12:14:00;3.85;;;1.40;;
59273;SDS011;45044;41.572;24.730;2023-02-22T12:19:51;4.20;;;1.40;;
59273;SDS011;45044;41.572;24.730;2023-02-22T12:22:26;4.03;;;1.60;;
59273;SDS011;45044;41.572;24.730;2023-02-22T12:30:25;4.00;;;1.60;;
59273;SDS011;45044;41.572;24.730;2023-02-22T12:33:16;2.42;;;1.33;;
59273;SDS011;45044;41.572;24.730;2023-02-22T12:35:53;5.13;;;2.10;;
59273;SDS011;45044;41.572;24.730;2023-02-22T12:38:42;2.70;;;1.30;;
59273;SDS011;45044;41.572;24.730;2023-02-22T12:44:07;4.57;;;1.45;;
59273;SDS011;45044;41.572;24.730;2023-02-22T12:46:43;3.13;;;1.10;;
59273;SDS011;45044;41.572;24.730;2023-02-22T12:54:52;1.73;;;1.25;;
59273;SDS011;45044;41.572;24.730;2023-02-22T13:02:57;4.35;;;1.30;;
59273;SDS011;45044;41.572;24.730;2023-02-22T13:05:29;2.95;;;1.40;;
59273;SDS011;45044;41.572;24.730;2023-02-22T13:08:15;1.55;;;0.93;;
59273;SDS011;45044;41.572;24.730;2023-02-22T13:16:41;4.80;;;1.67;;
59273;SDS011;45044;41.572;24.730;2023-02-22T13:27:51;3.30;;;1.55;;
59273;SDS011;45044;41.572;24.730;2023-02-22T13:30:35;3.08;;;1.15;;
59273;SDS011;45044;41.572;24.730;2023-02-22T13:44:07;2.05;;;1.10;;
59273;SDS011;45044;41.572;24.730;2023-02-22T13:49:23;2.60;;;1.50;;
59273;SDS011;45044;41.572;24.730;2023-02-22T13:52:09;2.83;;;1.60;;
59273;SDS011;45044;41.572;24.730;2023-02-22T13:54:43;2.42;;;1.30;;
59273;SDS011;45044;41.572;24.730;2023-02-22T13:57:18;4.78;;;1.80;;
59273;SDS011;45044;41.572;24.730;2023-02-22T14:02:56;3.00;;;1.95;;
59273;SDS011;45044;41.572;24.730;2023-02-22T14:05:52;3.65;;;1.77;;
59273;SDS011;45044;41.572;24.730;2023-02-22T14:10:54;4.50;;;2.30;;
59273;SDS011;45044;41.572;24.730;2023-02-22T14:13:22;6.15;;;2.35;;
59273;SDS011;45044;41.572;24.730;2023-02-22T14:16:15;5.88;;;2.38;;
59273;SDS011;45044;41.572;24.730;2023-02-22T14:18:47;4.22;;;2.08;;
59273;SDS011;45044;41.572;24.730;2023-02-22T14:21:17;6.13;;;2.50;;
59273;SDS011;45044;41.572;24.730;2023-02-22T14:23:46;6.80;;;2.70;;
59273;SDS011;45044;41.572;24.730;2023-02-22T14:26:28;4.28;;;1.95;;
59273;SDS011;45044;41.572;24.730;2023-02-22T14:34:13;4.00;;;1.80;;
59273;SDS011;45044;41.572;24.730;2023-02-22T14:42:30;4.10;;;2.05;;
59273;SDS011;45044;41.572;24.730;2023-02-22T14:47:49;4.65;;;2.58;;
59273;SDS011;45044;41.572;24.730;2023-02-22T15:03:47;4.10;;;1.80;;
59273;SDS011;45044;41.572;24.730;2023-02-22T15:06:27;10.27;;;3.47;;
59273;SDS011;45044;41.572;24.730;2023-02-22T15:09:04;3.05;;;2.03;;
59273;SDS011;45044;41.572;24.730;2023-02-22T15:11:37;4.57;;;2.20;;
59273;SDS011;45044;41.572;24.730;2023-02-22T15:14:15;5.80;;;3.38;;
59273;SDS011;45044;41.572;24.730;2023-02-22T15:16:52;6.30;;;3.03;;
59273;SDS011;45044;41.572;24.730;2023-02-22T15:19:25;5.97;;;2.63;;
59273;SDS011;45044;41.572;24.730;2023-02-22T15:21:56;9.57;;;5.32;;
59273;SDS011;45044;41.572;24.730;2023-02-22T15:24:35;7.40;;;3.05;;
59273;SDS011;45044;41.572;24.730;2023-02-22T15:27:05;6.55;;;2.80;;
59273;SDS011;45044;41.572;24.730;2023-02-22T15:29:38;7.55;;;3.63;;
59273;SDS011;45044;41.572;24.730;2023-02-22T15:32:29;5.47;;;2.85;;
59273;SDS011;45044;41.572;24.730;2023-02-22T15:35:15;7.82;;;4.05;;
59273;SDS011;45044;41.572;24.730;2023-02-22T15:37:58;7.93;;;4.30;;
59273;SDS011;45044;41.572;24.730;2023-02-22T15:40:28;9.20;;;5.30;;
59273;SDS011;45044;41.572;24.730;2023-02-22T15:42:59;6.15;;;3.28;;
59273;SDS011;45044;41.572;24.730;2023-02-22T15:45:34;10.07;;;4.95;;
59273;SDS011;45044;41.572;24.730;2023-02-22T15:48:11;9.53;;;3.67;;
59273;SDS011;45044;41.572;24.730;2023-02-22T15:50:48;6.85;;;3.88;;
59273;SDS011;45044;41.572;24.730;2023-02-22T15:53:47;41.42;;;26.33;;
59273;SDS011;45044;41.572;24.730;2023-02-22T15:56:16;10.10;;;6.90;;
59273;SDS011;45044;41.572;24.730;2023-02-22T15:58:49;9.23;;;5.90;;
59273;SDS011;45044;41.572;24.730;2023-02-22T16:01:24;5.55;;;3.10;;
59273;SDS011;45044;41.572;24.730;2023-02-22T16:03:56;7.97;;;4.10;;
59273;SDS011;45044;41.572;24.730;2023-02-22T16:06:29;25.30;;;15.73;;
59273;SDS011;45044;41.572;24.730;2023-02-22T16:09:08;10.23;;;7.75;;
59273;SDS011;45044;41.572;24.730;2023-02-22T16:11:39;11.68;;;8.18;;
59273;SDS011;45044;41.572;24.730;2023-02-22T16:19:59;64.28;;;40.70;;
59273;SDS011;45044;41.572;24.730;2023-02-22T16:22:47;63.20;;;40.60;;
59273;SDS011;45044;41.572;24.730;2023-02-22T16:27:52;53.78;;;35.72;;
59273;SDS011;45044;41.572;24.730;2023-02-22T16:30:24;67.13;;;42.13;;
59273;SDS011;45044;41.572;24.730;2023-02-22T16:33:03;56.55;;;37.30;;
59273;SDS011;45044;41.572;24.730;2023-02-22T16:35:35;55.45;;;37.78;;
59273;SDS011;45044;41.572;24.730;2023-02-22T16:38:03;42.83;;;28.23;;
59273;SDS011;45044;41.572;24.730;2023-02-22T16:40:49;40.58;;;28.20;;
59273;SDS011;45044;41.572;24.730;2023-02-22T16:43:21;79.30;;;56.15;;
59273;SDS011;45044;41.572;24.730;2023-02-22T16:45:50;60.95;;;41.05;;
59273;SDS011;45044;41.572;24.730;2023-02-22T16:48:19;66.20;;;43.83;;
59273;SDS011;45044;41.572;24.730;2023-02-22T16:50:51;85.72;;;50.53;;
59273;SDS011;45044;41.572;24.730;2023-02-22T16:53:20;73.88;;;47.70;;
59273;SDS011;45044;41.572;24.730;2023-02-22T16:55:49;68.38;;;48.13;;
59273;SDS011;45044;41.572;24.730;2023-02-22T16:58:24;83.25;;;57.88;;
59273;SDS011;45044;41.572;24.730;2023-02-22T17:00:55;92.07;;;60.03;;
59273;SDS011;45044;41.572;24.730;2023-02-22T17:03:23;78.13;;;51.70;;
59273;SDS011;45044;41.572;24.730;2023-02-22T17:05:51;124.78;;;77.18;;
59273;SDS011;45044;41.572;24.730;2023-02-22T17:08:19;49.08;;;34.47;;
59273;SDS011;45044;41.572;24.730;2023-02-22T17:10:45;48.88;;;32.65;;
59273;SDS011;45044;41.572;24.730;2023-02-22T17:13:12;53.55;;;36.55;;
59273;SDS011;45044;41.572;24.730;2023-02-22T17:15:49;55.75;;;37.40;;
59273;SDS011;45044;41.572;24.730;2023-02-22T17:18:16;79.45;;;52.25;;
59273;SDS011;45044;41.572;24.730;2023-02-22T17:20:49;62.28;;;43.47;;
59273;SDS011;45044;41.572;24.730;2023-02-22T17:23:17;63.53;;;42.15;;
59273;SDS011;45044;41.572;24.730;2023-02-22T17:25:49;51.92;;;31.05;;
59273;SDS011;45044;41.572;24.730;2023-02-22T17:28:22;53.50;;;34.78;;
59273;SDS011;45044;41.572;24.730;2023-02-22T17:30:50;57.38;;;37.38;;
59273;SDS011;45044;41.572;24.730;2023-02-22T17:33:20;62.15;;;37.08;;
59273;SDS011;45044;41.572;24.730;2023-02-22T17:35:52;62.70;;;39.33;;
59273;SDS011;45044;41.572;24.730;2023-02-22T17:38:20;74.85;;;47.38;;